sensor_id;sensor_type;location;lat;lon;timestamp;P1;durP1;ratioP1;P2;durP2;ratioP2
69534;SDS011;56754;51.568;5.048;2023-02-28T00:00:30;6.07;;;2.60;;
69534;SDS011;56754;51.568;5.048;2023-02-28T00:02:57;6.82;;;2.88;;
69534;SDS011;56754;51.568;5.048;2023-02-28T00:05:23;7.35;;;2.90;;
69534;SDS011;56754;51.568;5.048;2023-02-28T00:07:49;7.30;;;2.90;;
69534;SDS011;56754;51.568;5.048;2023-02-28T00:10:17;5.90;;;2.65;;
69534;SDS011;56754;51.568;5.048;2023-02-28T00:12:47;5.67;;;2.60;;
69534;SDS011;56754;51.568;5.048;2023-02-28T00:15:13;6.10;;;2.60;;
69534;SDS011;56754;51.568;5.048;2023-02-28T00:17:38;6.03;;;2.10;;
69534;SDS011;56754;51.568;5.048;2023-02-28T00:20:05;7.28;;;2.70;;
69534;SDS011;56754;51.568;5.048;2023-02-28T00:22:31;6.03;;;2.40;;
69534;SDS011;56754;51.568;5.048;2023-02-28T00:24:56;6.05;;;2.50;;
69534;SDS011;56754;51.568;5.048;2023-02-28T00:27:21;5.60;;;2.53;;
69534;SDS011;56754;51.568;5.048;2023-02-28T00:29:47;7.03;;;2.50;;
69534;SDS011;56754;51.568;5.048;2023-02-28T00:32:12;5.33;;;2.30;;
69534;SDS011;56754;51.568;5.048;2023-02-28T00:34:38;6.27;;;2.37;;
69534;SDS011;56754;51.568;5.048;2023-02-28T00:37:04;5.72;;;2.38;;
69534;SDS011;56754;51.568;5.048;2023-02-28T00:39:30;5.97;;;2.70;;
69534;SDS011;56754;51.568;5.048;2023-02-28T00:41:55;6.00;;;2.40;;
69534;SDS011;56754;51.568;5.048;2023-02-28T00:44:20;6.67;;;2.53;;
69534;SDS011;56754;51.568;5.048;2023-02-28T00:46:46;5.57;;;2.60;;
69534;SDS011;56754;51.568;5.048;2023-02-28T00:49:11;6.60;;;2.80;;
69534;SDS011;56754;51.568;5.048;2023-02-28T00:51:37;7.13;;;2.72;;
69534;SDS011;56754;51.568;5.048;2023-02-28T00:54:02;6.13;;;2.50;;
69534;SDS011;56754;51.568;5.048;2023-02-28T00:56:27;6.17;;;2.70;;
69534;SDS011;56754;51.568;5.048;2023-02-28T00:58:53;6.60;;;2.50;;
69534;SDS011;56754;51.568;5.048;2023-02-28T01:01:18;9.40;;;2.80;;
69534;SDS011;56754;51.568;5.048;2023-02-28T01:03:43;7.03;;;2.50;;
69534;SDS011;56754;51.568;5.048;2023-02-28T01:06:09;5.78;;;2.25;;
69534;SDS011;56754;51.568;5.048;2023-02-28T01:08:34;5.80;;;2.43;;
69534;SDS011;56754;51.568;5.048;2023-02-28T01:11:06;5.30;;;2.73;;
69534;SDS011;56754;51.568;5.048;2023-02-28T01:13:33;6.80;;;2.70;;
69534;SDS011;56754;51.568;5.048;2023-02-28T01:15:58;6.27;;;2.23;;
69534;SDS011;56754;51.568;5.048;2023-02-28T01:18:24;6.07;;;2.43;;
69534;SDS011;56754;51.568;5.048;2023-02-28T01:20:49;6.18;;;2.50;;
69534;SDS011;56754;51.568;5.048;2023-02-28T01:23:14;6.13;;;2.20;;
69534;SDS011;56754;51.568;5.048;2023-02-28T01:25:40;6.77;;;2.77;;
69534;SDS011;56754;51.568;5.048;2023-02-28T01:28:06;6.43;;;2.45;;
69534;SDS011;56754;51.568;5.048;2023-02-28T01:30:31;6.13;;;2.37;;
69534;SDS011;56754;51.568;5.048;2023-02-28T01:32:57;6.18;;;2.45;;
69534;SDS011;56754;51.568;5.048;2023-02-28T01:35:23;5.40;;;2.63;;
69534;SDS011;56754;51.568;5.048;2023-02-28T01:37:48;6.05;;;2.55;;
69534;SDS011;56754;51.568;5.048;2023-02-28T01:40:14;6.73;;;2.70;;
69534;SDS011;56754;51.568;5.048;2023-02-28T01:42:39;6.53;;;2.80;;
69534;SDS011;56754;51.568;5.048;2023-02-28T01:45:08;5.67;;;2.47;;
69534;SDS011;56754;51.568;5.048;2023-02-28T01:47:43;6.32;;;2.67;;
69534;SDS011;56754;51.568;5.048;2023-02-28T01:50:12;5.75;;;2.40;;
69534;SDS011;56754;51.568;5.048;2023-02-28T01:52:41;6.13;;;2.60;;
69534;SDS011;56754;51.568;5.048;2023-02-28T01:55:07;6.67;;;2.70;;
69534;SDS011;56754;51.568;5.048;2023-02-28T01:57:37;6.40;;;2.70;;
69534;SDS011;56754;51.568;5.048;2023-02-28T02:00:10;6.18;;;2.65;;
69534;SDS011;56754;51.568;5.048;2023-02-28T02:02:38;6.78;;;2.47;;
69534;SDS011;56754;51.568;5.048;2023-02-28T02:05:07;5.32;;;2.53;;
69534;SDS011;56754;51.568;5.048;2023-02-28T02:07:38;5.83;;;2.67;;
69534;SDS011;56754;51.568;5.048;2023-02-28T02:28:44;5.80;;;2.10;;
69534;SDS011;56754;51.568;5.048;2023-02-28T02:39:44;6.85;;;2.63;;
69534;SDS011;56754;51.568;5.048;2023-02-28T02:42:16;5.75;;;2.60;;
69534;SDS011;56754;51.568;5.048;2023-02-28T02:45:01;5.60;;;2.47;;
69534;SDS011;56754;51.568;5.048;2023-02-28T02:47:32;6.65;;;2.45;;
69534;SDS011;56754;51.568;5.048;2023-02-28T02:50:01;6.83;;;2.33;;
69534;SDS011;56754;51.568;5.048;2023-02-28T02:52:33;7.43;;;2.50;;
69534;SDS011;56754;51.568;5.048;2023-02-28T02:55:03;6.65;;;2.78;;
69534;SDS011;56754;51.568;5.048;2023-02-28T02:57:33;5.15;;;2.25;;
69534;SDS011;56754;51.568;5.048;2023-02-28T03:00:03;6.50;;;2.50;;
69534;SDS011;56754;51.568;5.048;2023-02-28T03:02:30;6.63;;;2.40;;
69534;SDS011;56754;51.568;5.048;2023-02-28T03:04:58;4.97;;;2.20;;
69534;SDS011;56754;51.568;5.048;2023-02-28T03:07:27;6.05;;;2.40;;
69534;SDS011;56754;51.568;5.048;2023-02-28T03:09:53;5.67;;;2.37;;
69534;SDS011;56754;51.568;5.048;2023-02-28T03:12:20;5.45;;;2.42;;
69534;SDS011;56754;51.568;5.048;2023-02-28T03:15:07;5.05;;;2.05;;
69534;SDS011;56754;51.568;5.048;2023-02-28T03:23:13;5.47;;;2.13;;
69534;SDS011;56754;51.568;5.048;2023-02-28T03:28:40;6.40;;;2.50;;
69534;SDS011;56754;51.568;5.048;2023-02-28T03:33:37;8.67;;;2.63;;
69534;SDS011;56754;51.568;5.048;2023-02-28T03:36:13;5.13;;;2.20;;
69534;SDS011;56754;51.568;5.048;2023-02-28T03:38:46;5.82;;;2.25;;
69534;SDS011;56754;51.568;5.048;2023-02-28T03:41:23;6.65;;;2.45;;
69534;SDS011;56754;51.568;5.048;2023-02-28T03:43:55;6.28;;;2.25;;
69534;SDS011;56754;51.568;5.048;2023-02-28T03:46:25;5.30;;;2.25;;
69534;SDS011;56754;51.568;5.048;2023-02-28T03:51:33;6.03;;;2.20;;
69534;SDS011;56754;51.568;5.048;2023-02-28T03:54:03;6.30;;;2.42;;
69534;SDS011;56754;51.568;5.048;2023-02-28T03:56:38;5.53;;;2.20;;
69534;SDS011;56754;51.568;5.048;2023-02-28T03:59:13;6.00;;;2.45;;
69534;SDS011;56754;51.568;5.048;2023-02-28T04:01:47;5.23;;;2.33;;
69534;SDS011;56754;51.568;5.048;2023-02-28T04:04:14;6.93;;;2.40;;
69534;SDS011;56754;51.568;5.048;2023-02-28T04:06:41;6.22;;;2.40;;
69534;SDS011;56754;51.568;5.048;2023-02-28T04:09:08;6.55;;;2.45;;
69534;SDS011;56754;51.568;5.048;2023-02-28T04:11:38;6.40;;;2.60;;
69534;SDS011;56754;51.568;5.048;2023-02-28T04:14:07;5.47;;;2.17;;
69534;SDS011;56754;51.568;5.048;2023-02-28T04:16:34;6.05;;;2.30;;
69534;SDS011;56754;51.568;5.048;2023-02-28T04:19:04;6.05;;;2.40;;
69534;SDS011;56754;51.568;5.048;2023-02-28T04:21:34;5.97;;;2.47;;
69534;SDS011;56754;51.568;5.048;2023-02-28T04:24:01;7.00;;;2.30;;
69534;SDS011;56754;51.568;5.048;2023-02-28T04:26:30;6.70;;;2.40;;
69534;SDS011;56754;51.568;5.048;2023-02-28T04:28:56;6.75;;;2.20;;
69534;SDS011;56754;51.568;5.048;2023-02-28T04:31:23;6.18;;;2.33;;
69534;SDS011;56754;51.568;5.048;2023-02-28T04:33:48;5.63;;;2.10;;
69534;SDS011;56754;51.568;5.048;2023-02-28T04:36:13;5.47;;;2.23;;
69534;SDS011;56754;51.568;5.048;2023-02-28T04:38:38;5.67;;;2.43;;
69534;SDS011;56754;51.568;5.048;2023-02-28T04:41:04;7.77;;;2.40;;
69534;SDS011;56754;51.568;5.048;2023-02-28T04:43:30;6.20;;;2.47;;
69534;SDS011;56754;51.568;5.048;2023-02-28T04:45:56;5.05;;;2.03;;
69534;SDS011;56754;51.568;5.048;2023-02-28T04:48:23;6.00;;;2.40;;
69534;SDS011;56754;51.568;5.048;2023-02-28T04:50:49;6.45;;;2.45;;
69534;SDS011;56754;51.568;5.048;2023-02-28T04:53:14;5.33;;;2.20;;
69534;SDS011;56754;51.568;5.048;2023-02-28T04:55:39;8.30;;;2.30;;
69534;SDS011;56754;51.568;5.048;2023-02-28T04:58:05;5.93;;;2.27;;
69534;SDS011;56754;51.568;5.048;2023-02-28T05:00:30;5.63;;;2.20;;
69534;SDS011;56754;51.568;5.048;2023-02-28T05:02:55;7.57;;;2.30;;
69534;SDS011;56754;51.568;5.048;2023-02-28T05:05:21;9.90;;;2.97;;
69534;SDS011;56754;51.568;5.048;2023-02-28T05:07:46;6.43;;;2.27;;
69534;SDS011;56754;51.568;5.048;2023-02-28T05:10:11;7.27;;;2.20;;
69534;SDS011;56754;51.568;5.048;2023-02-28T05:12:36;4.93;;;2.15;;
69534;SDS011;56754;51.568;5.048;2023-02-28T05:15:02;6.70;;;2.37;;
69534;SDS011;56754;51.568;5.048;2023-02-28T05:17:28;5.65;;;2.22;;
69534;SDS011;56754;51.568;5.048;2023-02-28T05:19:53;7.33;;;2.73;;
69534;SDS011;56754;51.568;5.048;2023-02-28T05:22:19;5.53;;;2.50;;
69534;SDS011;56754;51.568;5.048;2023-02-28T05:24:44;6.37;;;2.93;;
69534;SDS011;56754;51.568;5.048;2023-02-28T05:27:09;6.63;;;2.50;;
69534;SDS011;56754;51.568;5.048;2023-02-28T05:29:35;5.78;;;2.47;;
69534;SDS011;56754;51.568;5.048;2023-02-28T05:32:00;6.73;;;2.90;;
69534;SDS011;56754;51.568;5.048;2023-02-28T05:34:26;6.57;;;2.20;;
69534;SDS011;56754;51.568;5.048;2023-02-28T05:36:51;6.73;;;2.50;;
69534;SDS011;56754;51.568;5.048;2023-02-28T05:39:16;4.97;;;2.30;;
69534;SDS011;56754;51.568;5.048;2023-02-28T05:41:42;5.23;;;2.30;;
69534;SDS011;56754;51.568;5.048;2023-02-28T05:44:08;4.80;;;1.95;;
69534;SDS011;56754;51.568;5.048;2023-02-28T05:46:34;5.38;;;2.00;;
69534;SDS011;56754;51.568;5.048;2023-02-28T05:48:59;5.87;;;2.30;;
69534;SDS011;56754;51.568;5.048;2023-02-28T05:51:24;5.43;;;2.30;;
69534;SDS011;56754;51.568;5.048;2023-02-28T05:53:50;6.93;;;2.53;;
69534;SDS011;56754;51.568;5.048;2023-02-28T05:56:15;6.23;;;2.20;;
69534;SDS011;56754;51.568;5.048;2023-02-28T05:58:40;7.40;;;2.40;;
69534;SDS011;56754;51.568;5.048;2023-02-28T06:01:22;6.07;;;2.67;;
69534;SDS011;56754;51.568;5.048;2023-02-28T06:03:51;6.55;;;2.30;;
69534;SDS011;56754;51.568;5.048;2023-02-28T06:06:16;8.27;;;2.23;;
69534;SDS011;56754;51.568;5.048;2023-02-28T06:08:42;5.03;;;2.30;;
69534;SDS011;56754;51.568;5.048;2023-02-28T06:11:07;8.77;;;2.83;;
69534;SDS011;56754;51.568;5.048;2023-02-28T06:13:32;4.85;;;2.38;;
69534;SDS011;56754;51.568;5.048;2023-02-28T06:16:00;6.13;;;2.20;;
69534;SDS011;56754;51.568;5.048;2023-02-28T06:18:26;7.83;;;2.30;;
69534;SDS011;56754;51.568;5.048;2023-02-28T06:20:54;6.63;;;2.47;;
69534;SDS011;56754;51.568;5.048;2023-02-28T06:23:20;5.07;;;2.10;;
69534;SDS011;56754;51.568;5.048;2023-02-28T06:25:46;7.47;;;2.70;;
69534;SDS011;56754;51.568;5.048;2023-02-28T06:28:11;6.13;;;2.40;;
69534;SDS011;56754;51.568;5.048;2023-02-28T06:30:37;6.97;;;2.50;;
69534;SDS011;56754;51.568;5.048;2023-02-28T06:33:03;6.63;;;2.40;;
69534;SDS011;56754;51.568;5.048;2023-02-28T06:35:28;5.67;;;2.50;;
69534;SDS011;56754;51.568;5.048;2023-02-28T06:37:53;6.30;;;2.00;;
69534;SDS011;56754;51.568;5.048;2023-02-28T06:40:18;6.13;;;2.30;;
69534;SDS011;56754;51.568;5.048;2023-02-28T06:42:44;6.10;;;2.40;;
69534;SDS011;56754;51.568;5.048;2023-02-28T06:45:10;6.30;;;2.33;;
69534;SDS011;56754;51.568;5.048;2023-02-28T06:47:37;5.43;;;2.25;;
69534;SDS011;56754;51.568;5.048;2023-02-28T06:50:03;6.15;;;2.22;;
69534;SDS011;56754;51.568;5.048;2023-02-28T06:52:29;5.67;;;2.30;;
69534;SDS011;56754;51.568;5.048;2023-02-28T06:54:54;5.63;;;2.10;;
69534;SDS011;56754;51.568;5.048;2023-02-28T06:57:20;7.13;;;2.10;;
69534;SDS011;56754;51.568;5.048;2023-02-28T06:59:45;5.27;;;2.07;;
69534;SDS011;56754;51.568;5.048;2023-02-28T07:02:10;5.60;;;2.17;;
69534;SDS011;56754;51.568;5.048;2023-02-28T07:04:35;5.83;;;2.20;;
69534;SDS011;56754;51.568;5.048;2023-02-28T07:07:01;7.67;;;2.70;;
69534;SDS011;56754;51.568;5.048;2023-02-28T07:09:26;5.90;;;2.30;;
69534;SDS011;56754;51.568;5.048;2023-02-28T07:11:51;6.30;;;2.53;;
69534;SDS011;56754;51.568;5.048;2023-02-28T07:14:17;6.23;;;2.30;;
69534;SDS011;56754;51.568;5.048;2023-02-28T07:16:42;5.80;;;2.30;;
69534;SDS011;56754;51.568;5.048;2023-02-28T07:19:07;9.20;;;2.30;;
69534;SDS011;56754;51.568;5.048;2023-02-28T07:21:32;6.17;;;2.30;;
69534;SDS011;56754;51.568;5.048;2023-02-28T07:23:58;6.13;;;2.30;;
69534;SDS011;56754;51.568;5.048;2023-02-28T07:26:23;5.87;;;2.30;;
69534;SDS011;56754;51.568;5.048;2023-02-28T07:28:48;5.87;;;2.37;;
69534;SDS011;56754;51.568;5.048;2023-02-28T07:31:14;5.50;;;2.35;;
69534;SDS011;56754;51.568;5.048;2023-02-28T07:33:40;5.27;;;2.03;;
69534;SDS011;56754;51.568;5.048;2023-02-28T07:36:07;5.93;;;1.95;;
69534;SDS011;56754;51.568;5.048;2023-02-28T07:38:35;5.97;;;2.22;;
69534;SDS011;56754;51.568;5.048;2023-02-28T07:41:01;6.63;;;2.30;;
69534;SDS011;56754;51.568;5.048;2023-02-28T07:43:27;5.43;;;2.03;;
69534;SDS011;56754;51.568;5.048;2023-02-28T07:45:52;5.10;;;2.00;;
69534;SDS011;56754;51.568;5.048;2023-02-28T07:48:17;5.20;;;2.03;;
69534;SDS011;56754;51.568;5.048;2023-02-28T07:50:42;5.07;;;1.87;;
69534;SDS011;56754;51.568;5.048;2023-02-28T07:53:09;6.32;;;2.22;;
69534;SDS011;56754;51.568;5.048;2023-02-28T07:55:34;7.87;;;2.53;;
69534;SDS011;56754;51.568;5.048;2023-02-28T07:57:59;5.53;;;1.97;;
69534;SDS011;56754;51.568;5.048;2023-02-28T08:00:25;3.78;;;1.73;;
69534;SDS011;56754;51.568;5.048;2023-02-28T08:02:50;6.40;;;2.00;;
69534;SDS011;56754;51.568;5.048;2023-02-28T08:05:15;5.23;;;1.80;;
69534;SDS011;56754;51.568;5.048;2023-02-28T08:10:28;4.28;;;1.77;;
69534;SDS011;56754;51.568;5.048;2023-02-28T08:12:54;6.30;;;1.80;;
69534;SDS011;56754;51.568;5.048;2023-02-28T08:15:19;4.10;;;1.63;;
69534;SDS011;56754;51.568;5.048;2023-02-28T08:17:44;4.93;;;1.90;;
69534;SDS011;56754;51.568;5.048;2023-02-28T08:20:10;4.47;;;1.60;;
69534;SDS011;56754;51.568;5.048;2023-02-28T08:22:35;5.03;;;1.63;;
69534;SDS011;56754;51.568;5.048;2023-02-28T08:25:01;3.83;;;1.37;;
69534;SDS011;56754;51.568;5.048;2023-02-28T08:27:26;4.23;;;1.50;;
69534;SDS011;56754;51.568;5.048;2023-02-28T08:29:51;4.33;;;1.80;;
69534;SDS011;56754;51.568;5.048;2023-02-28T08:32:16;4.10;;;1.40;;
69534;SDS011;56754;51.568;5.048;2023-02-28T08:34:42;3.27;;;1.30;;
69534;SDS011;56754;51.568;5.048;2023-02-28T08:37:07;4.27;;;1.70;;
69534;SDS011;56754;51.568;5.048;2023-02-28T08:39:36;5.53;;;1.50;;
69534;SDS011;56754;51.568;5.048;2023-02-28T08:42:02;3.45;;;1.35;;
69534;SDS011;56754;51.568;5.048;2023-02-28T08:44:28;4.38;;;1.35;;
69534;SDS011;56754;51.568;5.048;2023-02-28T08:46:53;4.40;;;1.20;;
69534;SDS011;56754;51.568;5.048;2023-02-28T08:49:19;4.00;;;1.33;;
69534;SDS011;56754;51.568;5.048;2023-02-28T08:51:44;3.27;;;1.20;;
69534;SDS011;56754;51.568;5.048;2023-02-28T08:54:09;4.07;;;1.30;;
69534;SDS011;56754;51.568;5.048;2023-02-28T08:56:35;4.60;;;1.20;;
69534;SDS011;56754;51.568;5.048;2023-02-28T08:59:00;3.67;;;1.13;;
69534;SDS011;56754;51.568;5.048;2023-02-28T09:01:26;3.73;;;1.30;;
69534;SDS011;56754;51.568;5.048;2023-02-28T09:03:53;4.33;;;1.03;;
69534;SDS011;56754;51.568;5.048;2023-02-28T09:06:20;3.15;;;0.80;;
69534;SDS011;56754;51.568;5.048;2023-02-28T09:08:46;2.60;;;0.90;;
69534;SDS011;56754;51.568;5.048;2023-02-28T09:11:12;2.97;;;1.10;;
69534;SDS011;56754;51.568;5.048;2023-02-28T09:13:38;3.83;;;1.07;;
69534;SDS011;56754;51.568;5.048;2023-02-28T09:16:04;3.92;;;1.10;;
69534;SDS011;56754;51.568;5.048;2023-02-28T09:18:31;5.70;;;1.00;;
69534;SDS011;56754;51.568;5.048;2023-02-28T09:20:58;2.35;;;0.90;;
69534;SDS011;56754;51.568;5.048;2023-02-28T09:23:24;3.50;;;1.00;;
69534;SDS011;56754;51.568;5.048;2023-02-28T09:25:50;2.97;;;0.90;;
69534;SDS011;56754;51.568;5.048;2023-02-28T09:28:17;3.60;;;1.10;;
69534;SDS011;56754;51.568;5.048;2023-02-28T09:30:43;3.30;;;1.10;;
69534;SDS011;56754;51.568;5.048;2023-02-28T09:33:10;3.03;;;1.00;;
69534;SDS011;56754;51.568;5.048;2023-02-28T09:35:36;3.58;;;1.05;;
69534;SDS011;56754;51.568;5.048;2023-02-28T09:38:01;3.40;;;0.97;;
69534;SDS011;56754;51.568;5.048;2023-02-28T09:40:26;3.80;;;0.80;;
69534;SDS011;56754;51.568;5.048;2023-02-28T09:42:53;3.70;;;0.80;;
69534;SDS011;56754;51.568;5.048;2023-02-28T09:45:27;2.92;;;0.90;;
69534;SDS011;56754;51.568;5.048;2023-02-28T09:47:58;3.65;;;0.80;;
69534;SDS011;56754;51.568;5.048;2023-02-28T09:52:51;2.87;;;0.90;;
69534;SDS011;56754;51.568;5.048;2023-02-28T09:57:52;2.72;;;0.80;;
69534;SDS011;56754;51.568;5.048;2023-02-28T10:08:18;2.83;;;0.70;;
69534;SDS011;56754;51.568;5.048;2023-02-28T10:10:49;2.70;;;0.90;;
69534;SDS011;56754;51.568;5.048;2023-02-28T10:15:50;2.78;;;0.90;;
69534;SDS011;56754;51.568;5.048;2023-02-28T10:18:23;3.10;;;0.80;;
69534;SDS011;56754;51.568;5.048;2023-02-28T10:20:52;3.80;;;0.90;;
69534;SDS011;56754;51.568;5.048;2023-02-28T10:23:20;2.58;;;0.80;;
69534;SDS011;56754;51.568;5.048;2023-02-28T10:25:54;2.50;;;0.80;;
69534;SDS011;56754;51.568;5.048;2023-02-28T10:28:34;2.70;;;0.98;;
69534;SDS011;56754;51.568;5.048;2023-02-28T10:30:59;3.43;;;0.80;;
69534;SDS011;56754;51.568;5.048;2023-02-28T10:33:29;3.00;;;1.00;;
69534;SDS011;56754;51.568;5.048;2023-02-28T10:35:56;2.65;;;0.80;;
69534;SDS011;56754;51.568;5.048;2023-02-28T10:38:23;3.05;;;0.85;;
69534;SDS011;56754;51.568;5.048;2023-02-28T10:40:51;2.33;;;0.70;;
69534;SDS011;56754;51.568;5.048;2023-02-28T10:45:53;3.03;;;0.95;;
69534;SDS011;56754;51.568;5.048;2023-02-28T10:48:27;2.73;;;0.70;;
69534;SDS011;56754;51.568;5.048;2023-02-28T10:50:56;2.63;;;0.93;;
69534;SDS011;56754;51.568;5.048;2023-02-28T10:58:26;3.50;;;0.90;;
69534;SDS011;56754;51.568;5.048;2023-02-28T11:00:53;2.35;;;0.75;;
69534;SDS011;56754;51.568;5.048;2023-02-28T11:03:23;4.43;;;0.80;;
69534;SDS011;56754;51.568;5.048;2023-02-28T11:05:49;2.30;;;0.70;;
69534;SDS011;56754;51.568;5.048;2023-02-28T11:08:15;2.80;;;0.80;;
69534;SDS011;56754;51.568;5.048;2023-02-28T11:10:53;4.78;;;1.20;;
69534;SDS011;56754;51.568;5.048;2023-02-28T11:13:21;2.65;;;0.82;;
69534;SDS011;56754;51.568;5.048;2023-02-28T11:15:53;2.90;;;0.75;;
69534;SDS011;56754;51.568;5.048;2023-02-28T11:20:49;2.90;;;0.97;;
69534;SDS011;56754;51.568;5.048;2023-02-28T11:23:17;2.95;;;0.82;;
69534;SDS011;56754;51.568;5.048;2023-02-28T11:25:48;2.97;;;0.80;;
69534;SDS011;56754;51.568;5.048;2023-02-28T11:28:32;2.33;;;0.73;;
69534;SDS011;56754;51.568;5.048;2023-02-28T11:31:32;1.65;;;0.63;;
69534;SDS011;56754;51.568;5.048;2023-02-28T11:39:00;2.17;;;0.77;;
69534;SDS011;56754;51.568;5.048;2023-02-28T11:47:25;2.63;;;0.80;;
69534;SDS011;56754;51.568;5.048;2023-02-28T11:52:57;3.30;;;0.88;;
69534;SDS011;56754;51.568;5.048;2023-02-28T12:00:54;2.80;;;0.60;;
69534;SDS011;56754;51.568;5.048;2023-02-28T12:06:28;2.42;;;0.70;;
69534;SDS011;56754;51.568;5.048;2023-02-28T12:22:32;2.28;;;0.73;;
69534;SDS011;56754;51.568;5.048;2023-02-28T12:28:09;2.53;;;0.80;;
69534;SDS011;56754;51.568;5.048;2023-02-28T12:30:37;2.47;;;0.50;;
69534;SDS011;56754;51.568;5.048;2023-02-28T12:33:12;2.88;;;0.75;;
69534;SDS011;56754;51.568;5.048;2023-02-28T12:35:49;2.88;;;0.80;;
69534;SDS011;56754;51.568;5.048;2023-02-28T12:38:23;2.45;;;0.70;;
69534;SDS011;56754;51.568;5.048;2023-02-28T12:43:20;3.03;;;0.90;;
69534;SDS011;56754;51.568;5.048;2023-02-28T12:45:58;2.63;;;0.88;;
69534;SDS011;56754;51.568;5.048;2023-02-28T12:48:43;3.30;;;0.90;;
69534;SDS011;56754;51.568;5.048;2023-02-28T12:51:09;2.13;;;0.70;;
69534;SDS011;56754;51.568;5.048;2023-02-28T12:56:30;4.15;;;0.80;;
69534;SDS011;56754;51.568;5.048;2023-02-28T12:59:21;2.97;;;0.70;;
69534;SDS011;56754;51.568;5.048;2023-02-28T13:07:39;2.90;;;0.90;;
69534;SDS011;56754;51.568;5.048;2023-02-28T13:10:13;3.78;;;1.00;;
69534;SDS011;56754;51.568;5.048;2023-02-28T13:12:48;2.53;;;0.80;;
69534;SDS011;56754;51.568;5.048;2023-02-28T13:15:22;3.17;;;1.10;;
69534;SDS011;56754;51.568;5.048;2023-02-28T13:17:52;1.95;;;0.60;;
69534;SDS011;56754;51.568;5.048;2023-02-28T13:20:29;2.73;;;0.67;;
69534;SDS011;56754;51.568;5.048;2023-02-28T13:23:00;2.90;;;1.10;;
69534;SDS011;56754;51.568;5.048;2023-02-28T13:25:49;5.32;;;1.00;;
69534;SDS011;56754;51.568;5.048;2023-02-28T13:28:11;3.00;;;0.70;;
69534;SDS011;56754;51.568;5.048;2023-02-28T13:36:01;5.57;;;0.90;;
69534;SDS011;56754;51.568;5.048;2023-02-28T13:46:26;2.53;;;0.98;;
69534;SDS011;56754;51.568;5.048;2023-02-28T13:48:51;3.43;;;0.83;;
69534;SDS011;56754;51.568;5.048;2023-02-28T13:51:37;2.23;;;0.90;;
69534;SDS011;56754;51.568;5.048;2023-02-28T13:54:23;2.10;;;0.67;;
69534;SDS011;56754;51.568;5.048;2023-02-28T14:02:56;2.88;;;1.00;;
69534;SDS011;56754;51.568;5.048;2023-02-28T14:05:26;2.22;;;0.73;;
69534;SDS011;56754;51.568;5.048;2023-02-28T14:07:53;2.47;;;0.73;;
69534;SDS011;56754;51.568;5.048;2023-02-28T14:10:26;3.50;;;0.93;;
69534;SDS011;56754;51.568;5.048;2023-02-28T14:13:01;3.78;;;1.10;;
69534;SDS011;56754;51.568;5.048;2023-02-28T14:18:28;2.13;;;0.70;;
69534;SDS011;56754;51.568;5.048;2023-02-28T14:21:08;2.93;;;1.20;;
69534;SDS011;56754;51.568;5.048;2023-02-28T14:23:36;2.83;;;1.02;;
69534;SDS011;56754;51.568;5.048;2023-02-28T14:26:18;3.15;;;0.80;;
69534;SDS011;56754;51.568;5.048;2023-02-28T14:29:15;3.15;;;0.85;;
69534;SDS011;56754;51.568;5.048;2023-02-28T14:32:06;2.38;;;0.80;;
69534;SDS011;56754;51.568;5.048;2023-02-28T14:37:16;2.97;;;1.00;;
69534;SDS011;56754;51.568;5.048;2023-02-28T14:39:48;2.42;;;0.80;;
69534;SDS011;56754;51.568;5.048;2023-02-28T14:45:03;2.40;;;0.60;;
69534;SDS011;56754;51.568;5.048;2023-02-28T14:47:33;3.03;;;0.90;;
69534;SDS011;56754;51.568;5.048;2023-02-28T14:50:00;3.63;;;0.90;;
69534;SDS011;56754;51.568;5.048;2023-02-28T14:52:28;3.20;;;0.80;;
69534;SDS011;56754;51.568;5.048;2023-02-28T14:54:59;2.85;;;0.80;;
69534;SDS011;56754;51.568;5.048;2023-02-28T14:57:30;2.10;;;0.73;;
69534;SDS011;56754;51.568;5.048;2023-02-28T15:00:21;2.60;;;0.80;;
69534;SDS011;56754;51.568;5.048;2023-02-28T15:02:45;2.60;;;0.80;;
69534;SDS011;56754;51.568;5.048;2023-02-28T15:07:39;2.70;;;0.80;;
69534;SDS011;56754;51.568;5.048;2023-02-28T15:12:36;2.78;;;0.73;;
69534;SDS011;56754;51.568;5.048;2023-02-28T15:15:02;7.50;;;1.30;;
69534;SDS011;56754;51.568;5.048;2023-02-28T15:17:28;2.47;;;0.70;;
69534;SDS011;56754;51.568;5.048;2023-02-28T15:19:54;2.80;;;0.77;;
69534;SDS011;56754;51.568;5.048;2023-02-28T15:22:33;2.40;;;0.80;;
69534;SDS011;56754;51.568;5.048;2023-02-28T15:25:02;2.40;;;0.70;;
69534;SDS011;56754;51.568;5.048;2023-02-28T15:27:30;3.35;;;0.80;;
69534;SDS011;56754;51.568;5.048;2023-02-28T15:29:59;3.50;;;0.97;;
69534;SDS011;56754;51.568;5.048;2023-02-28T15:32:39;3.17;;;0.93;;
69534;SDS011;56754;51.568;5.048;2023-02-28T15:40:44;3.08;;;0.82;;
69534;SDS011;56754;51.568;5.048;2023-02-28T15:45:47;2.53;;;0.80;;
69534;SDS011;56754;51.568;5.048;2023-02-28T15:50:52;4.32;;;0.70;;
69534;SDS011;56754;51.568;5.048;2023-02-28T15:53:25;2.97;;;0.82;;
69534;SDS011;56754;51.568;5.048;2023-02-28T15:55:57;2.90;;;0.80;;
69534;SDS011;56754;51.568;5.048;2023-02-28T15:58:25;3.25;;;1.10;;
69534;SDS011;56754;51.568;5.048;2023-02-28T16:01:08;3.05;;;1.02;;
69534;SDS011;56754;51.568;5.048;2023-02-28T16:03:44;2.67;;;0.70;;
69534;SDS011;56754;51.568;5.048;2023-02-28T16:09:01;3.40;;;1.00;;
69534;SDS011;56754;51.568;5.048;2023-02-28T16:11:27;2.55;;;0.90;;
69534;SDS011;56754;51.568;5.048;2023-02-28T16:13:52;3.65;;;0.90;;
69534;SDS011;56754;51.568;5.048;2023-02-28T16:16:19;2.50;;;0.83;;
69534;SDS011;56754;51.568;5.048;2023-02-28T16:18:46;4.68;;;0.80;;
69534;SDS011;56754;51.568;5.048;2023-02-28T16:21:11;2.97;;;0.90;;
69534;SDS011;56754;51.568;5.048;2023-02-28T16:23:37;2.60;;;0.93;;
69534;SDS011;56754;51.568;5.048;2023-02-28T16:26:03;3.23;;;0.80;;
69534;SDS011;56754;51.568;5.048;2023-02-28T16:28:30;4.07;;;1.10;;
69534;SDS011;56754;51.568;5.048;2023-02-28T16:31:01;3.55;;;1.00;;
69534;SDS011;56754;51.568;5.048;2023-02-28T16:33:29;4.00;;;1.05;;
69534;SDS011;56754;51.568;5.048;2023-02-28T16:35:56;2.92;;;1.10;;
69534;SDS011;56754;51.568;5.048;2023-02-28T16:38:22;4.80;;;1.20;;
69534;SDS011;56754;51.568;5.048;2023-02-28T16:40:47;3.97;;;1.10;;
69534;SDS011;56754;51.568;5.048;2023-02-28T16:43:17;3.27;;;1.10;;
69534;SDS011;56754;51.568;5.048;2023-02-28T16:45:44;3.60;;;1.10;;
69534;SDS011;56754;51.568;5.048;2023-02-28T16:48:14;3.03;;;1.10;;
69534;SDS011;56754;51.568;5.048;2023-02-28T16:50:41;4.37;;;0.87;;
69534;SDS011;56754;51.568;5.048;2023-02-28T16:53:07;3.25;;;1.00;;
69534;SDS011;56754;51.568;5.048;2023-02-28T16:55:33;3.90;;;1.30;;
69534;SDS011;56754;51.568;5.048;2023-02-28T16:58:00;4.43;;;1.13;;
69534;SDS011;56754;51.568;5.048;2023-02-28T17:00:26;3.70;;;1.10;;
69534;SDS011;56754;51.568;5.048;2023-02-28T17:02:55;3.63;;;1.17;;
69534;SDS011;56754;51.568;5.048;2023-02-28T17:05:22;3.35;;;1.05;;
69534;SDS011;56754;51.568;5.048;2023-02-28T17:07:48;3.83;;;1.15;;
69534;SDS011;56754;51.568;5.048;2023-02-28T17:10:15;3.47;;;1.30;;
69534;SDS011;56754;51.568;5.048;2023-02-28T17:12:43;4.53;;;1.38;;
69534;SDS011;56754;51.568;5.048;2023-02-28T17:15:09;3.60;;;1.20;;
69534;SDS011;56754;51.568;5.048;2023-02-28T17:17:36;4.15;;;1.30;;
69534;SDS011;56754;51.568;5.048;2023-02-28T17:20:02;3.67;;;1.27;;
69534;SDS011;56754;51.568;5.048;2023-02-28T17:22:28;5.43;;;1.30;;
69534;SDS011;56754;51.568;5.048;2023-02-28T17:24:53;4.15;;;1.17;;
69534;SDS011;56754;51.568;5.048;2023-02-28T17:27:18;3.20;;;1.20;;
69534;SDS011;56754;51.568;5.048;2023-02-28T17:29:43;3.70;;;1.13;;
69534;SDS011;56754;51.568;5.048;2023-02-28T17:32:09;4.63;;;1.40;;
69534;SDS011;56754;51.568;5.048;2023-02-28T17:34:34;4.93;;;1.70;;
69534;SDS011;56754;51.568;5.048;2023-02-28T17:36:59;3.70;;;1.30;;
69534;SDS011;56754;51.568;5.048;2023-02-28T17:39:25;4.50;;;1.40;;